sensor_id;sensor_type;location;lat;lon;timestamp;pressure;altitude;pressure_sealevel;temperature;humidity
57859;BME280;49153;45.568;11.894;2022-09-27T00:01:53;99949.81;;;16.36;85.00
57859;BME280;49153;45.568;11.894;2022-09-27T00:04:18;99942.69;;;16.37;85.06
57859;BME280;49153;45.568;11.894;2022-09-27T00:06:44;99932.53;;;16.32;84.98
57859;BME280;49153;45.568;11.894;2022-09-27T00:09:09;99923.72;;;16.32;85.55
57859;BME280;49153;45.568;11.894;2022-09-27T00:11:38;99918.53;;;16.30;85.24
57859;BME280;49153;45.568;11.894;2022-09-27T00:14:04;99912.72;;;16.35;85.48
57859;BME280;49153;45.568;11.894;2022-09-27T00:16:31;99910.25;;;16.33;85.61
57859;BME280;49153;45.568;11.894;2022-09-27T00:18:58;99905.91;;;16.32;85.31
57859;BME280;49153;45.568;11.894;2022-09-27T00:21:24;99902.56;;;16.30;85.73
57859;BME280;49153;45.568;11.894;2022-09-27T00:23:49;99901.94;;;16.28;85.71
57859;BME280;49153;45.568;11.894;2022-09-27T00:26:15;99896.06;;;16.25;85.86
57859;BME280;49153;45.568;11.894;2022-09-27T00:28:40;99909.72;;;16.22;85.86
57859;BME280;49153;45.568;11.894;2022-09-27T00:31:10;99915.88;;;16.22;85.82
57859;BME280;49153;45.568;11.894;2022-09-27T00:33:38;99921.84;;;16.24;85.86
57859;BME280;49153;45.568;11.894;2022-09-27T00:36:04;99925.19;;;16.26;85.96
57859;BME280;49153;45.568;11.894;2022-09-27T00:38:29;99913.88;;;16.24;85.71
57859;BME280;49153;45.568;11.894;2022-09-27T00:40:55;99916.53;;;16.24;85.79
57859;BME280;49153;45.568;11.894;2022-09-27T00:43:21;99915.06;;;16.22;85.88
57859;BME280;49153;45.568;11.894;2022-09-27T00:45:56;99920.03;;;16.25;86.15
57859;BME280;49153;45.568;11.894;2022-09-27T00:48:25;99914.41;;;16.28;85.99
57859;BME280;49153;45.568;11.894;2022-09-27T00:50:54;99910.91;;;16.27;85.97
57859;BME280;49153;45.568;11.894;2022-09-27T00:53:32;99913.03;;;16.24;85.63
57859;BME280;49153;45.568;11.894;2022-09-27T00:56:03;99915.22;;;16.28;85.86
57859;BME280;49153;45.568;11.894;2022-09-27T00:58:32;99913.91;;;16.32;85.73
57859;BME280;49153;45.568;11.894;2022-09-27T01:01:00;99907.38;;;16.35;85.64
57859;BME280;49153;45.568;11.894;2022-09-27T01:03:32;99903.75;;;16.36;85.44
57859;BME280;49153;45.568;11.894;2022-09-27T01:05:58;99904.56;;;16.36;85.46
57859;BME280;49153;45.568;11.894;2022-09-27T01:08:23;99902.75;;;16.37;85.66
57859;BME280;49153;45.568;11.894;2022-09-27T01:11:02;99905.91;;;16.40;85.48
57859;BME280;49153;45.568;11.894;2022-09-27T01:13:37;99904.91;;;16.41;85.47
57859;BME280;49153;45.568;11.894;2022-09-27T01:16:11;99899.91;;;16.46;85.31
57859;BME280;49153;45.568;11.894;2022-09-27T01:18:52;99888.94;;;16.50;85.24
57859;BME280;49153;45.568;11.894;2022-09-27T01:21:27;99886.91;;;16.52;84.81
57859;BME280;49153;45.568;11.894;2022-09-27T01:24:06;99883.63;;;16.50;84.77
57859;BME280;49153;45.568;11.894;2022-09-27T01:32:04;99903.41;;;16.31;84.72
57859;BME280;49153;45.568;11.894;2022-09-27T01:39:33;99880.28;;;16.31;84.56
57859;BME280;49153;45.568;11.894;2022-09-27T01:42:09;99873.63;;;16.27;84.32
57859;BME280;49153;45.568;11.894;2022-09-27T01:44:46;99872.63;;;16.20;84.37
57859;BME280;49153;45.568;11.894;2022-09-27T01:47:15;99866.31;;;16.21;84.36
57859;BME280;49153;45.568;11.894;2022-09-27T01:49:45;99860.66;;;16.24;84.42
57859;BME280;49153;45.568;11.894;2022-09-27T01:52:13;99858.97;;;16.23;84.44
57859;BME280;49153;45.568;11.894;2022-09-27T01:54:42;99862.31;;;16.25;84.18
57859;BME280;49153;45.568;11.894;2022-09-27T01:57:09;99849.84;;;16.26;84.08
57859;BME280;49153;45.568;11.894;2022-09-27T01:59:42;99859.16;;;16.22;83.85
57859;BME280;49153;45.568;11.894;2022-09-27T02:02:09;99863.63;;;16.13;83.84
57859;BME280;49153;45.568;11.894;2022-09-27T02:04:36;99872.66;;;16.12;84.01
57859;BME280;49153;45.568;11.894;2022-09-27T02:07:14;99874.47;;;16.12;84.03
57859;BME280;49153;45.568;11.894;2022-09-27T02:09:44;99863.97;;;16.10;83.95
57859;BME280;49153;45.568;11.894;2022-09-27T02:12:13;99860.34;;;16.11;83.88
57859;BME280;49153;45.568;11.894;2022-09-27T02:14:40;99863.66;;;16.05;83.70
57859;BME280;49153;45.568;11.894;2022-09-27T02:22:16;99849.69;;;15.95;84.06
57859;BME280;49153;45.568;11.894;2022-09-27T02:27:16;99838.38;;;15.85;83.88
57859;BME280;49153;45.568;11.894;2022-09-27T02:29:44;99833.19;;;15.83;84.29
57859;BME280;49153;45.568;11.894;2022-09-27T02:32:11;99836.00;;;15.82;84.15
57859;BME280;49153;45.568;11.894;2022-09-27T02:34:36;99833.84;;;15.77;84.06
57859;BME280;49153;45.568;11.894;2022-09-27T02:37:04;99841.00;;;15.69;84.24
57859;BME280;49153;45.568;11.894;2022-09-27T02:39:30;99839.66;;;15.65;84.53
57859;BME280;49153;45.568;11.894;2022-09-27T02:41:55;99836.66;;;15.59;84.64
57859;BME280;49153;45.568;11.894;2022-09-27T02:44:22;99831.66;;;15.56;84.97
57859;BME280;49153;45.568;11.894;2022-09-27T02:52:26;99809.19;;;15.43;85.54
57859;BME280;49153;45.568;11.894;2022-09-27T02:59:59;99814.59;;;15.25;86.36
57859;BME280;49153;45.568;11.894;2022-09-27T03:02:34;99818.75;;;15.19;86.67
57859;BME280;49153;45.568;11.894;2022-09-27T03:05:14;99821.88;;;15.15;86.86
57859;BME280;49153;45.568;11.894;2022-09-27T03:07:41;99826.22;;;15.16;86.88
57859;BME280;49153;45.568;11.894;2022-09-27T03:10:07;99826.38;;;15.14;86.88
57859;BME280;49153;45.568;11.894;2022-09-27T03:12:39;99824.69;;;15.13;87.23
57859;BME280;49153;45.568;11.894;2022-09-27T03:15:05;99820.56;;;15.11;86.99
57859;BME280;49153;45.568;11.894;2022-09-27T03:17:30;99822.22;;;15.12;87.33
57859;BME280;49153;45.568;11.894;2022-09-27T03:19:55;99820.38;;;15.12;87.45
57859;BME280;49153;45.568;11.894;2022-09-27T03:22:21;99830.19;;;15.12;87.43
57859;BME280;49153;45.568;11.894;2022-09-27T03:24:46;99824.69;;;15.13;87.32
57859;BME280;49153;45.568;11.894;2022-09-27T03:27:11;99820.22;;;15.14;87.52
57859;BME280;49153;45.568;11.894;2022-09-27T03:29:36;99811.09;;;15.16;87.70
57859;BME280;49153;45.568;11.894;2022-09-27T03:32:02;99817.41;;;15.15;87.45
57859;BME280;49153;45.568;11.894;2022-09-27T03:34:28;99808.59;;;15.15;87.48
57859;BME280;49153;45.568;11.894;2022-09-27T03:36:53;99804.59;;;15.11;87.55
57859;BME280;49153;45.568;11.894;2022-09-27T03:39:19;99808.94;;;15.12;87.69
57859;BME280;49153;45.568;11.894;2022-09-27T03:41:44;99800.63;;;15.15;87.70
57859;BME280;49153;45.568;11.894;2022-09-27T03:44:09;99799.78;;;15.14;87.62
57859;BME280;49153;45.568;11.894;2022-09-27T03:46:34;99800.97;;;15.12;87.54
57859;BME280;49153;45.568;11.894;2022-09-27T03:49:00;99807.09;;;15.12;87.83
57859;BME280;49153;45.568;11.894;2022-09-27T03:51:25;99804.06;;;15.07;87.65
57859;BME280;49153;45.568;11.894;2022-09-27T03:53:51;99802.25;;;15.08;87.92
57859;BME280;49153;45.568;11.894;2022-09-27T03:56:17;99795.59;;;15.04;87.75
57859;BME280;49153;45.568;11.894;2022-09-27T03:58:42;99795.75;;;15.02;87.90
57859;BME280;49153;45.568;11.894;2022-09-27T04:01:08;99802.75;;;15.03;88.00
57859;BME280;49153;45.568;11.894;2022-09-27T04:03:33;99802.75;;;15.03;88.09
57859;BME280;49153;45.568;11.894;2022-09-27T04:06:00;99810.06;;;15.01;88.09
57859;BME280;49153;45.568;11.894;2022-09-27T04:08:26;99796.59;;;15.03;88.29
57859;BME280;49153;45.568;11.894;2022-09-27T04:10:52;99787.63;;;15.04;88.27
57859;BME280;49153;45.568;11.894;2022-09-27T04:13:17;99785.66;;;15.06;88.06
57859;BME280;49153;45.568;11.894;2022-09-27T04:21:50;99773.19;;;14.98;87.93
57859;BME280;49153;45.568;11.894;2022-09-27T04:24:15;99771.34;;;14.99;88.23
57859;BME280;49153;45.568;11.894;2022-09-27T04:26:40;99761.41;;;15.01;88.30
57859;BME280;49153;45.568;11.894;2022-09-27T04:29:06;99759.09;;;15.06;88.33
57859;BME280;49153;45.568;11.894;2022-09-27T04:31:33;99754.09;;;15.03;88.22
57859;BME280;49153;45.568;11.894;2022-09-27T04:33:59;99746.47;;;15.00;87.97
57859;BME280;49153;45.568;11.894;2022-09-27T04:36:24;99747.31;;;15.00;88.41
57859;BME280;49153;45.568;11.894;2022-09-27T04:39:03;99741.16;;;15.08;88.56
57859;BME280;49153;45.568;11.894;2022-09-27T04:41:29;99732.53;;;15.06;88.03
57859;BME280;49153;45.568;11.894;2022-09-27T04:43:54;99736.19;;;15.05;88.31
57859;BME280;49153;45.568;11.894;2022-09-27T04:46:20;99731.84;;;15.04;88.23
57859;BME280;49153;45.568;11.894;2022-09-27T04:48:48;99744.81;;;15.07;88.26
57859;BME280;49153;45.568;11.894;2022-09-27T04:51:13;99743.16;;;15.06;88.38
57859;BME280;49153;45.568;11.894;2022-09-27T04:53:41;99747.00;;;15.11;88.67
57859;BME280;49153;45.568;11.894;2022-09-27T04:56:06;99752.31;;;15.19;88.78
57859;BME280;49153;45.568;11.894;2022-09-27T04:58:32;99756.50;;;15.22;88.51
57859;BME280;49153;45.568;11.894;2022-09-27T05:00:58;99751.63;;;15.17;88.02
57859;BME280;49153;45.568;11.894;2022-09-27T05:03:24;99755.13;;;15.18;88.45
57859;BME280;49153;45.568;11.894;2022-09-27T05:05:50;99759.13;;;15.14;88.08
57859;BME280;49153;45.568;11.894;2022-09-27T05:08:15;99759.25;;;15.12;88.21
57859;BME280;49153;45.568;11.894;2022-09-27T05:10:40;99759.75;;;15.08;88.31
57859;BME280;49153;45.568;11.894;2022-09-27T05:13:05;99763.88;;;15.02;88.24
57859;BME280;49153;45.568;11.894;2022-09-27T05:15:31;99753.44;;;15.01;88.91
57859;BME280;49153;45.568;11.894;2022-09-27T05:17:56;99756.75;;;15.03;88.96
57859;BME280;49153;45.568;11.894;2022-09-27T05:20:23;99750.94;;;15.07;89.05
57859;BME280;49153;45.568;11.894;2022-09-27T05:22:49;99757.09;;;15.08;88.96
57859;BME280;49153;45.568;11.894;2022-09-27T05:25:14;99748.00;;;15.10;88.95
57859;BME280;49153;45.568;11.894;2022-09-27T05:27:41;99752.63;;;15.08;88.75
57859;BME280;49153;45.568;11.894;2022-09-27T05:30:06;99745.47;;;15.01;89.03
57859;BME280;49153;45.568;11.894;2022-09-27T05:32:32;99739.13;;;14.94;89.16
57859;BME280;49153;45.568;11.894;2022-09-27T05:34:58;99734.66;;;14.94;89.61
57859;BME280;49153;45.568;11.894;2022-09-27T05:37:23;99735.50;;;14.95;89.76
57859;BME280;49153;45.568;11.894;2022-09-27T05:39:49;99736.16;;;14.97;89.93
57859;BME280;49153;45.568;11.894;2022-09-27T05:42:14;99737.66;;;14.99;89.99
57859;BME280;49153;45.568;11.894;2022-09-27T05:44:40;99733.03;;;15.01;89.84
57859;BME280;49153;45.568;11.894;2022-09-27T05:47:05;99737.50;;;15.01;89.90
57859;BME280;49153;45.568;11.894;2022-09-27T05:49:30;99741.81;;;15.02;89.92
57859;BME280;49153;45.568;11.894;2022-09-27T05:51:56;99742.63;;;15.02;90.03
57859;BME280;49153;45.568;11.894;2022-09-27T05:54:21;99745.13;;;15.04;90.05
57859;BME280;49153;45.568;11.894;2022-09-27T05:56:46;99744.81;;;15.07;90.04
57859;BME280;49153;45.568;11.894;2022-09-27T05:59:12;99750.78;;;15.09;90.14
57859;BME280;49153;45.568;11.894;2022-09-27T06:01:37;99742.53;;;15.12;90.26
57859;BME280;49153;45.568;11.894;2022-09-27T06:04:02;99744.16;;;15.13;90.08
57859;BME280;49153;45.568;11.894;2022-09-27T06:06:28;99748.00;;;15.10;89.87
57859;BME280;49153;45.568;11.894;2022-09-27T06:08:54;99741.69;;;15.11;89.85
57859;BME280;49153;45.568;11.894;2022-09-27T06:11:19;99747.50;;;15.15;90.13
57859;BME280;49153;45.568;11.894;2022-09-27T06:13:44;99743.16;;;15.14;90.25
57859;BME280;49153;45.568;11.894;2022-09-27T06:16:10;99741.00;;;15.17;90.45
57859;BME280;49153;45.568;11.894;2022-09-27T06:18:35;99732.53;;;15.14;89.79
57859;BME280;49153;45.568;11.894;2022-09-27T06:21:01;99735.00;;;15.07;89.80
57859;BME280;49153;45.568;11.894;2022-09-27T06:23:27;99739.50;;;15.07;90.19
57859;BME280;49153;45.568;11.894;2022-09-27T06:25:52;99735.84;;;15.08;90.22
57859;BME280;49153;45.568;11.894;2022-09-27T06:28:19;99724.38;;;15.07;90.38
57859;BME280;49153;45.568;11.894;2022-09-27T06:30:45;99723.25;;;15.10;90.57
57859;BME280;49153;45.568;11.894;2022-09-27T06:33:12;99717.44;;;15.14;90.71
57859;BME280;49153;45.568;11.894;2022-09-27T06:35:38;99720.25;;;15.13;90.47
57859;BME280;49153;45.568;11.894;2022-09-27T06:38:04;99722.22;;;15.03;90.54
57859;BME280;49153;45.568;11.894;2022-09-27T06:40:30;99729.19;;;14.96;90.25
57859;BME280;49153;45.568;11.894;2022-09-27T06:43:08;99736.63;;;14.92;90.45
57859;BME280;49153;45.568;11.894;2022-09-27T06:45:34;99734.16;;;14.91;90.74
57859;BME280;49153;45.568;11.894;2022-09-27T06:48:00;99737.28;;;14.86;90.60
57859;BME280;49153;45.568;11.894;2022-09-27T06:50:27;99730.31;;;14.85;91.16
57859;BME280;49153;45.568;11.894;2022-09-27T06:52:52;99729.16;;;14.88;91.04
57859;BME280;49153;45.568;11.894;2022-09-27T06:55:17;99718.22;;;14.91;91.13
57859;BME280;49153;45.568;11.894;2022-09-27T06:57:42;99721.53;;;14.93;90.88
57859;BME280;49153;45.568;11.894;2022-09-27T07:00:26;99712.72;;;14.92;91.05
57859;BME280;49153;45.568;11.894;2022-09-27T07:02:52;99712.25;;;14.97;91.41
57859;BME280;49153;45.568;11.894;2022-09-27T07:05:18;99701.31;;;15.00;91.64
57859;BME280;49153;45.568;11.894;2022-09-27T07:07:43;99712.94;;;15.07;91.74
57859;BME280;49153;45.568;11.894;2022-09-27T07:10:09;99708.78;;;15.12;91.79
57859;BME280;49153;45.568;11.894;2022-09-27T07:12:35;99710.31;;;15.15;91.84
57859;BME280;49153;45.568;11.894;2022-09-27T07:15:01;99711.78;;;15.17;92.04
57859;BME280;49153;45.568;11.894;2022-09-27T07:17:26;99705.00;;;15.23;92.31
57859;BME280;49153;45.568;11.894;2022-09-27T07:19:52;99704.34;;;15.29;92.19
57859;BME280;49153;45.568;11.894;2022-09-27T07:22:18;99713.47;;;15.35;92.22
57859;BME280;49153;45.568;11.894;2022-09-27T07:24:43;99725.28;;;15.40;92.03
57859;BME280;49153;45.568;11.894;2022-09-27T07:27:08;99742.56;;;15.44;92.03
57859;BME280;49153;45.568;11.894;2022-09-27T07:29:33;99761.00;;;15.46;92.09
57859;BME280;49153;45.568;11.894;2022-09-27T07:31:59;99748.69;;;15.45;92.10
57859;BME280;49153;45.568;11.894;2022-09-27T07:34:24;99733.94;;;15.42;92.09
57859;BME280;49153;45.568;11.894;2022-09-27T07:36:49;99753.53;;;15.41;92.36
57859;BME280;49153;45.568;11.894;2022-09-27T07:39:15;99770.47;;;15.40;92.00
57859;BME280;49153;45.568;11.894;2022-09-27T07:41:42;99761.50;;;15.41;92.12
57859;BME280;49153;45.568;11.894;2022-09-27T07:44:07;99758.50;;;15.44;92.45
57859;BME280;49153;45.568;11.894;2022-09-27T07:46:34;99747.22;;;15.50;92.80
57859;BME280;49153;45.568;11.894;2022-09-27T07:48:59;99744.28;;;15.53;92.41
57859;BME280;49153;45.568;11.894;2022-09-27T07:51:24;99735.63;;;15.51;92.14
57859;BME280;49153;45.568;11.894;2022-09-27T07:53:49;99708.06;;;15.52;92.37
57859;BME280;49153;45.568;11.894;2022-09-27T07:56:15;99700.75;;;15.54;92.61
57859;BME280;49153;45.568;11.894;2022-09-27T07:58:40;99707.41;;;15.58;92.85
57859;BME280;49153;45.568;11.894;2022-09-27T08:01:06;99706.72;;;15.65;93.10
57859;BME280;49153;45.568;11.894;2022-09-27T08:03:31;99702.75;;;15.69;93.27
57859;BME280;49153;45.568;11.894;2022-09-27T08:05:56;99700.06;;;15.77;93.29
57859;BME280;49153;45.568;11.894;2022-09-27T08:08:21;99694.72;;;15.93;94.42
57859;BME280;49153;45.568;11.894;2022-09-27T08:10:48;99711.81;;;16.15;95.35
57859;BME280;49153;45.568;11.894;2022-09-27T08:13:14;99717.75;;;16.33;94.91
57859;BME280;49153;45.568;11.894;2022-09-27T08:15:41;99720.19;;;16.51;94.58
57859;BME280;49153;45.568;11.894;2022-09-27T08:18:07;99712.34;;;16.65;94.55
57859;BME280;49153;45.568;11.894;2022-09-27T08:20:35;99715.81;;;16.74;93.68
57859;BME280;49153;45.568;11.894;2022-09-27T08:23:00;99715.44;;;16.77;93.14
57859;BME280;49153;45.568;11.894;2022-09-27T08:25:28;99725.78;;;16.80;92.75
57859;BME280;49153;45.568;11.894;2022-09-27T08:27:55;99722.44;;;16.78;92.13
57859;BME280;49153;45.568;11.894;2022-09-27T08:30:21;99729.59;;;16.77;91.24
57859;BME280;49153;45.568;11.894;2022-09-27T08:32:46;99733.75;;;16.80;91.54
57859;BME280;49153;45.568;11.894;2022-09-27T08:35:11;99740.34;;;16.92;92.37
57859;BME280;49153;45.568;11.894;2022-09-27T08:37:39;99732.94;;;17.10;92.02
57859;BME280;49153;45.568;11.894;2022-09-27T08:40:04;99725.38;;;17.22;91.48
57859;BME280;49153;45.568;11.894;2022-09-27T08:42:36;99723.75;;;17.36;92.31
57859;BME280;49153;45.568;11.894;2022-09-27T08:47:34;99723.72;;;17.66;91.83
57859;BME280;49153;45.568;11.894;2022-09-27T08:50:21;99717.50;;;17.74;90.80
57859;BME280;49153;45.568;11.894;2022-09-27T08:57:47;99726.66;;;17.94;90.49
57859;BME280;49153;45.568;11.894;2022-09-27T09:00:14;99727.59;;;18.01;90.11
57859;BME280;49153;45.568;11.894;2022-09-27T09:02:40;99723.09;;;18.17;89.82
57859;BME280;49153;45.568;11.894;2022-09-27T09:05:06;99729.47;;;18.30;89.36
57859;BME280;49153;45.568;11.894;2022-09-27T09:12:33;99728.28;;;18.62;88.04
57859;BME280;49153;45.568;11.894;2022-09-27T09:23:05;99725.81;;;18.75;81.96
57859;BME280;49153;45.568;11.894;2022-09-27T09:25:44;99719.72;;;18.67;82.76
57859;BME280;49153;45.568;11.894;2022-09-27T09:31:13;99705.50;;;18.95;82.13
57859;BME280;49153;45.568;11.894;2022-09-27T09:33:48;99711.75;;;19.03;82.47
57859;BME280;49153;45.568;11.894;2022-09-27T09:38:48;99711.91;;;19.37;83.66
57859;BME280;49153;45.568;11.894;2022-09-27T09:41:24;99711.16;;;19.64;82.55
57859;BME280;49153;45.568;11.894;2022-09-27T09:43:56;99711.81;;;19.66;80.11
57859;BME280;49153;45.568;11.894;2022-09-27T09:51:23;99692.75;;;19.76;79.20
57859;BME280;49153;45.568;11.894;2022-09-27T09:53:56;99693.03;;;19.88;78.12
57859;BME280;49153;45.568;11.894;2022-09-27T09:56:24;99698.63;;;19.93;77.94
57859;BME280;49153;45.568;11.894;2022-09-27T09:58:54;99685.28;;;19.99;78.50
57859;BME280;49153;45.568;11.894;2022-09-27T10:01:25;99685.16;;;20.07;76.93
57859;BME280;49153;45.568;11.894;2022-09-27T10:03:53;99688.25;;;20.11;77.50
57859;BME280;49153;45.568;11.894;2022-09-27T10:06:18;99688.00;;;20.06;76.11
57859;BME280;49153;45.568;11.894;2022-09-27T10:08:43;99691.34;;;20.08;76.28
57859;BME280;49153;45.568;11.894;2022-09-27T10:11:15;99683.53;;;20.13;77.33
57859;BME280;49153;45.568;11.894;2022-09-27T10:13:43;99683.81;;;20.24;76.13
57859;BME280;49153;45.568;11.894;2022-09-27T10:16:09;99675.78;;;20.24;76.56
57859;BME280;49153;45.568;11.894;2022-09-27T10:18:35;99676.28;;;20.41;77.31
57859;BME280;49153;45.568;11.894;2022-09-27T10:21:03;99676.78;;;20.58;76.42
57859;BME280;49153;45.568;11.894;2022-09-27T10:23:30;99683.84;;;20.65;73.77
57859;BME280;49153;45.568;11.894;2022-09-27T10:25:59;99682.63;;;20.75;74.45
57859;BME280;49153;45.568;11.894;2022-09-27T10:28:26;99682.06;;;20.86;73.69
57859;BME280;49153;45.568;11.894;2022-09-27T10:30:55;99679.78;;;20.89;72.19
57859;BME280;49153;45.568;11.894;2022-09-27T10:33:21;99681.44;;;20.84;72.33
57859;BME280;49153;45.568;11.894;2022-09-27T10:35:47;99687.00;;;20.89;73.27
57859;BME280;49153;45.568;11.894;2022-09-27T10:40:41;99686.44;;;20.93;71.54
57859;BME280;49153;45.568;11.894;2022-09-27T10:45:56;99684.63;;;21.14;71.04
57859;BME280;49153;45.568;11.894;2022-09-27T10:48:23;99677.84;;;21.18;71.51
57859;BME280;49153;45.568;11.894;2022-09-27T10:50:58;99676.63;;;21.33;71.81
57859;BME280;49153;45.568;11.894;2022-09-27T10:53:25;99667.78;;;21.39;69.69
57859;BME280;49153;45.568;11.894;2022-09-27T10:55:51;99668.00;;;21.44;70.60
57859;BME280;49153;45.568;11.894;2022-09-27T10:58:17;99675.00;;;21.45;69.40
57859;BME280;49153;45.568;11.894;2022-09-27T11:00:44;99668.19;;;21.49;69.20
57859;BME280;49153;45.568;11.894;2022-09-27T11:03:18;99673.75;;;21.48;68.50
57859;BME280;49153;45.568;11.894;2022-09-27T11:05:43;99662.63;;;21.51;68.53
57859;BME280;49153;45.568;11.894;2022-09-27T11:10:43;99667.16;;;21.77;67.23
57859;BME280;49153;45.568;11.894;2022-09-27T11:15:51;99671.28;;;21.92;65.52
57859;BME280;49153;45.568;11.894;2022-09-27T11:18:32;99663.22;;;21.92;66.33
57859;BME280;49153;45.568;11.894;2022-09-27T11:24:30;99659.75;;;21.99;66.56
57859;BME280;49153;45.568;11.894;2022-09-27T11:26:55;99654.97;;;22.14;64.50
57859;BME280;49153;45.568;11.894;2022-09-27T11:29:29;99641.97;;;22.04;65.28
57859;BME280;49153;45.568;11.894;2022-09-27T11:32:04;99644.41;;;22.12;65.92
57859;BME280;49153;45.568;11.894;2022-09-27T11:37:40;99647.28;;;22.30;65.93
57859;BME280;49153;45.568;11.894;2022-09-27T11:45:33;99641.97;;;22.62;65.66
57859;BME280;49153;45.568;11.894;2022-09-27T12:05:32;99634.34;;;23.35;62.13
57859;BME280;49153;45.568;11.894;2022-09-27T12:10:35;99630.84;;;23.59;61.69
57859;BME280;49153;45.568;11.894;2022-09-27T12:13:02;99625.91;;;23.56;60.81
57859;BME280;49153;45.568;11.894;2022-09-27T12:15:28;99620.84;;;23.66;61.77
57859;BME280;49153;45.568;11.894;2022-09-27T12:17:58;99622.81;;;23.77;61.02
57859;BME280;49153;45.568;11.894;2022-09-27T12:20:27;99620.91;;;23.84;60.25
57859;BME280;49153;45.568;11.894;2022-09-27T12:23:02;99625.34;;;23.72;59.98
57859;BME280;49153;45.568;11.894;2022-09-27T12:25:29;99623.44;;;23.54;60.05
57859;BME280;49153;45.568;11.894;2022-09-27T12:27:57;99623.91;;;23.45;59.66
57859;BME280;49153;45.568;11.894;2022-09-27T12:30:25;99626.78;;;23.19;58.63
57859;BME280;49153;45.568;11.894;2022-09-27T12:35:26;99614.94;;;23.26;60.93
57859;BME280;49153;45.568;11.894;2022-09-27T12:40:25;99614.28;;;23.80;61.64
57859;BME280;49153;45.568;11.894;2022-09-27T12:45:41;99626.56;;;23.76;59.78
57859;BME280;49153;45.568;11.894;2022-09-27T12:50:47;99622.53;;;23.36;60.96
57859;BME280;49153;45.568;11.894;2022-09-27T13:00:44;99625.81;;;23.06;61.85
57859;BME280;49153;45.568;11.894;2022-09-27T13:06:08;99630.16;;;22.76;59.33
57859;BME280;49153;45.568;11.894;2022-09-27T13:08:47;99627.06;;;22.66;60.44
57859;BME280;49153;45.568;11.894;2022-09-27T13:13:59;99628.91;;;22.79;63.06
57859;BME280;49153;45.568;11.894;2022-09-27T13:16:26;99627.44;;;22.83;62.39
57859;BME280;49153;45.568;11.894;2022-09-27T13:24:27;99614.13;;;22.50;61.03
57859;BME280;49153;45.568;11.894;2022-09-27T13:26:53;99625.31;;;22.40;61.90
57859;BME280;49153;45.568;11.894;2022-09-27T13:29:22;99620.59;;;22.29;61.71
57859;BME280;49153;45.568;11.894;2022-09-27T13:34:37;99626.19;;;22.27;62.81
57859;BME280;49153;45.568;11.894;2022-09-27T13:39:48;99626.38;;;22.32;62.96
57859;BME280;49153;45.568;11.894;2022-09-27T13:42:33;99626.94;;;22.48;63.14
57859;BME280;49153;45.568;11.894;2022-09-27T13:47:31;99609.75;;;23.00;61.53
57859;BME280;49153;45.568;11.894;2022-09-27T13:52:38;99604.97;;;23.27;60.15
57859;BME280;49153;45.568;11.894;2022-09-27T13:55:36;99604.88;;;23.46;59.77
57859;BME280;49153;45.568;11.894;2022-09-27T14:00:21;99604.50;;;23.86;59.74
57859;BME280;49153;45.568;11.894;2022-09-27T14:05:19;99609.84;;;24.11;56.21
57859;BME280;49153;45.568;11.894;2022-09-27T14:07:47;99611.56;;;24.05;54.69
57859;BME280;49153;45.568;11.894;2022-09-27T14:10:16;99609.22;;;24.09;55.81
57859;BME280;49153;45.568;11.894;2022-09-27T14:12:43;99616.81;;;24.18;55.52
57859;BME280;49153;45.568;11.894;2022-09-27T14:15:22;99615.72;;;24.26;56.88
57859;BME280;49153;45.568;11.894;2022-09-27T14:17:49;99619.13;;;24.33;56.98
57859;BME280;49153;45.568;11.894;2022-09-27T14:20:28;99615.72;;;24.26;56.73
57859;BME280;49153;45.568;11.894;2022-09-27T14:22:56;99616.00;;;24.18;56.35
57859;BME280;49153;45.568;11.894;2022-09-27T14:25:23;99613.03;;;24.01;55.05
57859;BME280;49153;45.568;11.894;2022-09-27T14:27:49;99610.84;;;23.91;55.09
57859;BME280;49153;45.568;11.894;2022-09-27T14:30:16;99611.16;;;23.83;54.83
57859;BME280;49153;45.568;11.894;2022-09-27T14:32:45;99606.00;;;23.82;53.92
57859;BME280;49153;45.568;11.894;2022-09-27T14:35:12;99610.28;;;23.89;54.62
57859;BME280;49153;45.568;11.894;2022-09-27T14:38:00;99622.09;;;23.88;52.54
57859;BME280;49153;45.568;11.894;2022-09-27T14:40:26;99622.25;;;23.93;53.20
57859;BME280;49153;45.568;11.894;2022-09-27T14:42:55;99616.78;;;24.00;53.52
57859;BME280;49153;45.568;11.894;2022-09-27T14:45:25;99624.09;;;24.18;53.69
57859;BME280;49153;45.568;11.894;2022-09-27T14:47:51;99628.28;;;24.32;52.88
57859;BME280;49153;45.568;11.894;2022-09-27T14:50:26;99628.13;;;24.45;53.61
57859;BME280;49153;45.568;11.894;2022-09-27T14:52:53;99635.75;;;24.48;52.22
57859;BME280;49153;45.568;11.894;2022-09-27T14:55:21;99636.34;;;24.50;52.94
57859;BME280;49153;45.568;11.894;2022-09-27T14:57:50;99629.63;;;24.41;48.69
57859;BME280;49153;45.568;11.894;2022-09-27T15:00:26;99636.97;;;24.34;51.88
57859;BME280;49153;45.568;11.894;2022-09-27T15:02:55;99640.69;;;24.33;51.71
57859;BME280;49153;45.568;11.894;2022-09-27T15:05:26;99641.53;;;24.33;52.71
57859;BME280;49153;45.568;11.894;2022-09-27T15:07:52;99641.63;;;24.27;51.60
57859;BME280;49153;45.568;11.894;2022-09-27T15:10:21;99650.66;;;24.32;53.16
57859;BME280;49153;45.568;11.894;2022-09-27T15:12:48;99654.94;;;24.40;52.61
57859;BME280;49153;45.568;11.894;2022-09-27T15:15:15;99648.03;;;24.44;51.56
57859;BME280;49153;45.568;11.894;2022-09-27T15:17:43;99644.50;;;24.44;51.15
57859;BME280;49153;45.568;11.894;2022-09-27T15:20:28;99656.13;;;24.44;51.58
57859;BME280;49153;45.568;11.894;2022-09-27T15:22:54;99651.94;;;24.30;53.42
57859;BME280;49153;45.568;11.894;2022-09-27T15:25:21;99658.38;;;24.29;54.75
57859;BME280;49153;45.568;11.894;2022-09-27T15:27:48;99658.91;;;24.19;54.75